Time;durP1;ratioP1;P1;durP2;ratioP2;P2;SDS_P1;SDS_P2;PMS_P1;PMS_P2;Temp;Humidity;BMP_temperature;BMP_pressure;BME280_temperature;BME280_humidity;BME280_pressure;Samples;Min_cycle;Max_cycle;Signal;HPM_P1;HPM_P2
2022/11/14 10:50:56;;;;;;;10.70;4.43;;;7.80;99.90;;;;;;4946306;23;20252;-71
2022/11/14 10:53:30;;;;;;;7.77;4.13;;;8.10;99.90;;;;;;4916528;29;20236;-68
2022/11/14 10:55:58;;;;;;;9.63;4.30;;;8.20;99.90;;;;;;4917375;29;20312;-70
2022/11/14 10:58:25;;;;;;;7.77;4.10;;;8.20;99.90;;;;;;4917119;29;20693;-70
2022/11/14 11:00:52;;;;;;;6.40;4.00;;;8.40;99.90;;;;;;4917762;29;20629;-71
2022/11/14 11:03:19;;;;;;;13.10;5.23;;;8.40;99.90;;;;;;4911308;29;20221;-71
2022/11/14 11:05:50;;;;;;;8.40;4.33;;;8.30;99.90;;;;;;4896650;29;20212;-72
2022/11/14 11:11:29;;;;;;;10.30;5.10;;;8.40;99.90;;;;;;4896012;29;20258;-73
2022/11/14 11:13:59;;;;;;;11.03;4.20;;;8.40;99.90;;;;;;4908101;29;20308;-71
2022/11/14 11:16:28;;;;;;;8.87;4.13;;;8.60;99.90;;;;;;4930116;29;20228;-77
2022/11/14 11:19:14;;;;;;;11.23;4.43;;;8.70;99.90;;;;;;4934202;29;20295;-73
2022/11/14 11:21:49;;;;;;;10.13;4.13;;;8.90;99.90;;;;;;4934452;29;20304;-72
2022/11/14 11:24:31;;;;;;;6.87;4.23;;;8.70;99.90;;;;;;4919952;29;20212;-74
2022/11/14 11:27:21;;;;;;;12.30;4.23;;;8.70;99.90;;;;;;4915086;29;20240;-71
2022/11/14 11:29:56;;;;;;;9.47;5.00;;;8.80;99.90;;;;;;4915381;29;20214;-71
2022/11/14 11:32:25;;;;;;;11.60;4.83;;;8.80;99.90;;;;;;4914927;29;20324;-73
2022/11/14 11:34:52;;;;;;;8.53;4.47;;;8.90;99.90;;;;;;4914833;29;20736;-71
2022/11/14 11:37:24;;;;;;;6.87;4.30;;;8.80;99.90;;;;;;4915192;29;20332;-71
2022/11/14 11:39:55;;;;;;;12.47;5.13;;;8.50;99.90;;;;;;4914188;29;20216;-73
2022/11/14 11:42:27;;;;;;;7.60;4.13;;;8.10;99.90;;;;;;4896293;29;20305;-74
2022/11/14 11:44:59;;;;;;;8.87;4.70;;;8.00;99.90;;;;;;4895947;29;20234;-73
2022/11/14 11:47:29;;;;;;;10.37;4.97;;;8.10;99.90;;;;;;4896014;29;20241;-74
2022/11/14 11:49:56;;;;;;;12.07;5.10;;;8.10;99.90;;;;;;4895979;29;20309;-73
2022/11/14 11:52:34;;;;;;;8.53;5.40;;;8.00;99.90;;;;;;4896241;29;20725;-77
2022/11/14 11:55:12;;;;;;;11.40;5.40;;;8.00;99.90;;;;;;4895653;29;20292;-78
2022/11/14 11:57:44;;;;;;;10.50;4.93;;;7.60;99.90;;;;;;4895857;29;20230;-72
2022/11/14 12:00:16;;;;;;;13.67;6.13;;;7.40;99.90;;;;;;4902890;29;20220;-72
2022/11/14 12:02:46;;;;;;;9.80;5.50;;;7.30;99.90;;;;;;4914969;29;20209;-70
2022/11/14 12:05:16;;;;;;;15.70;5.90;;;7.20;99.90;;;;;;4917007;29;20273;-73
2022/11/14 12:07:50;;;;;;;10.57;5.90;;;7.00;99.90;;;;;;4918500;29;20318;-75
2022/11/14 12:10:20;;;;;;;13.20;6.10;;;7.10;99.90;;;;;;4918390;29;20210;-74
2022/11/14 12:13:35;;;;;;;13.97;6.57;;;7.00;99.90;;;;;;4918643;29;20245;-74
2022/11/14 12:16:12;;;;;;;12.20;6.20;;;7.00;99.90;;;;;;4860319;29;20421;-74
2022/11/14 12:19:09;;;;;;;11.47;5.50;;;7.20;99.90;;;;;;4915612;29;20217;-76
2022/11/14 12:22:04;;;;;;;12.27;6.30;;;7.30;99.90;;;;;;4886891;29;20214;-69
2022/11/14 12:24:50;;;;;;;15.20;6.10;;;7.20;99.90;;;;;;4918015;29;20688;-73
2022/11/14 12:27:31;;;;;;;12.93;5.90;;;7.30;99.90;;;;;;4918268;29;20764;-73
2022/11/14 12:30:12;;;;;;;11.83;5.80;;;7.30;99.90;;;;;;4918645;29;20248;-73
2022/11/14 12:32:43;;;;;;;13.80;6.07;;;7.20;99.90;;;;;;4917704;29;20268;-70
2022/11/14 12:35:18;;;;;;;10.50;5.40;;;7.10;99.90;;;;;;4918365;29;20260;-69
2022/11/14 12:37:46;;;;;;;12.67;5.93;;;7.20;99.90;;;;;;4918415;29;20267;-75
2022/11/14 12:40:25;;;;;;;13.43;6.23;;;7.30;99.90;;;;;;4918028;29;20209;-77
2022/11/14 12:42:53;;;;;;;14.47;5.87;;;7.30;99.90;;;;;;4918503;29;20233;-73
2022/11/14 12:46:01;;;;;;;12.70;5.73;;;7.20;99.90;;;;;;4918539;29;20292;-75
2022/11/14 12:48:36;;;;;;;11.23;5.70;;;7.20;99.90;;;;;;4918053;29;20245;-74
2022/11/14 12:51:06;;;;;;;11.80;5.47;;;7.10;99.90;;;;;;4915403;29;20217;-73
2022/11/14 12:53:43;;;;;;;16.10;6.10;;;7.30;99.90;;;;;;4906975;29;20739;-67
2022/11/14 12:56:46;;;;;;;13.00;5.97;;;7.30;99.90;;;;;;4915789;29;20321;-74
2022/11/14 12:59:25;;;;;;;13.67;6.40;;;7.30;99.90;;;;;;4899136;29;20700;-76
2022/11/14 13:02:17;;;;;;;11.13;5.60;;;7.40;99.90;;;;;;4898879;29;20635;-74
2022/11/14 13:05:11;;;;;;;11.93;6.20;;;7.40;99.90;;;;;;4916747;29;20300;-72
2022/11/14 13:07:51;;;;;;;12.53;5.93;;;7.70;99.90;;;;;;4916253;29;20237;-74
2022/11/14 13:10:26;;;;;;;11.70;5.77;;;7.80;99.90;;;;;;4898802;29;20245;-77
2022/11/14 13:21:47;;;;;;;11.47;5.57;;;7.80;99.90;;;;;;4899907;29;20229;-72
2022/11/14 13:24:16;;;;;;;14.33;5.83;;;7.70;99.90;;;;;;4899828;29;20214;-72
2022/11/14 13:26:52;;;;;;;11.33;5.40;;;7.60;99.90;;;;;;4899864;29;20259;-72
2022/11/14 13:29:58;;;;;;;12.93;6.03;;;7.50;99.90;;;;;;4899779;29;20249;-72
2022/11/14 13:32:54;;;;;;;14.60;6.80;;;7.50;99.90;;;;;;4899840;29;20273;-73
2022/11/14 13:35:32;;;;;;;14.27;6.37;;;7.30;99.90;;;;;;4899488;29;20217;-74
2022/11/14 13:38:36;;;;;;;15.57;6.00;;;7.30;99.90;;;;;;4899432;29;20321;-73
2022/11/14 13:41:23;;;;;;;12.90;6.13;;;7.20;99.90;;;;;;4899882;29;20297;-73
2022/11/14 13:44:04;;;;;;;12.27;5.97;;;7.10;99.90;;;;;;4899809;29;20218;-75
2022/11/14 13:46:47;;;;;;;15.87;6.97;;;7.20;99.90;;;;;;4899569;29;20317;-72
2022/11/14 13:49:38;;;;;;;13.37;6.33;;;7.40;99.90;;;;;;4899545;29;20312;-72
2022/11/14 13:52:05;;;;;;;13.67;6.63;;;7.30;99.90;;;;;;4899389;29;20313;-73
2022/11/14 13:54:32;;;;;;;14.63;6.60;;;7.30;99.90;;;;;;4899285;29;20207;-72
2022/11/14 13:57:20;;;;;;;11.03;5.93;;;7.50;99.90;;;;;;4899324;29;20235;-72
2022/11/14 13:59:56;;;;;;;11.60;6.10;;;7.40;99.90;;;;;;4899450;29;20661;-78
2022/11/14 14:02:58;;;;;;;14.23;6.00;;;7.30;99.90;;;;;;4899507;29;20209;-76
2022/11/14 14:05:34;;;;;;;13.60;6.57;;;7.10;99.90;;;;;;4899321;29;20701;-77
2022/11/14 14:08:13;;;;;;;14.33;6.77;;;7.00;99.90;;;;;;4899674;29;20296;-77
2022/11/14 14:10:48;;;;;;;12.63;7.00;;;7.00;99.90;;;;;;4899178;29;20214;-79
2022/11/14 14:13:30;;;;;;;11.63;6.37;;;7.10;99.90;;;;;;4898980;29;20336;-79
2022/11/14 14:16:05;;;;;;;13.67;7.20;;;7.10;99.90;;;;;;4899137;29;20258;-78
2022/11/14 14:18:44;;;;;;;14.87;7.13;;;7.20;99.90;;;;;;4899115;29;20562;-76
2022/11/14 14:21:23;;;;;;;15.27;7.10;;;7.30;99.90;;;;;;4898958;29;20558;-75
2022/11/14 14:23:59;;;;;;;13.73;6.53;;;7.30;99.90;;;;;;4899137;29;20214;-72
2022/11/14 14:26:33;;;;;;;15.00;6.90;;;7.40;99.90;;;;;;4898685;29;20325;-73
2022/11/14 14:29:12;;;;;;;13.37;6.33;;;7.50;99.90;;;;;;4898878;29;20316;-75
2022/11/14 14:31:41;;;;;;;14.30;6.80;;;7.50;99.90;;;;;;4898676;29;20670;-75
2022/11/14 14:34:22;;;;;;;16.63;7.10;;;7.50;99.90;;;;;;4898437;29;20246;-75
2022/11/14 14:36:52;;;;;;;16.83;6.93;;;7.50;99.90;;;;;;4898721;29;20600;-74
2022/11/14 14:39:24;;;;;;;13.93;7.03;;;7.50;99.90;;;;;;4898465;29;20206;-73
2022/11/14 14:41:52;;;;;;;12.33;6.77;;;7.50;99.90;;;;;;4898725;29;20254;-75
2022/11/14 14:44:25;;;;;;;11.63;6.47;;;7.60;99.90;;;;;;4898720;29;20220;-73
2022/11/14 14:46:52;;;;;;;18.43;7.07;;;7.70;99.90;;;;;;4898494;29;20317;-75
2022/11/14 14:49:23;;;;;;;14.73;7.07;;;7.80;99.90;;;;;;4898325;29;20249;-75
2022/11/14 14:51:52;;;;;;;14.63;6.93;;;7.90;99.90;;;;;;4898515;29;20301;-74
2022/11/14 14:54:20;;;;;;;17.03;7.77;;;7.80;99.90;;;;;;4898527;29;20212;-75
2022/11/14 14:56:54;;;;;;;16.40;7.90;;;7.90;99.90;;;;;;4898311;29;20265;-77
2022/11/14 14:59:23;;;;;;;17.27;7.37;;;7.90;99.90;;;;;;4898396;29;20210;-75
2022/11/14 15:01:50;;;;;;;14.07;7.50;;;7.90;99.90;;;;;;4898287;29;20211;-75
2022/11/14 15:04:19;;;;;;;14.87;7.43;;;8.00;99.90;;;;;;4898233;29;20218;-76
2022/11/14 15:06:47;;;;;;;16.10;7.50;;;7.90;99.90;;;;;;4897723;29;20234;-74
2022/11/14 15:09:19;;;;;;;16.20;7.53;;;7.90;99.90;;;;;;4898026;29;20239;-75
2022/11/14 15:11:50;;;;;;;17.00;8.13;;;7.90;99.90;;;;;;4897886;29;20543;-74
2022/11/14 15:14:20;;;;;;;15.87;7.93;;;7.80;99.90;;;;;;4898053;29;20724;-73
2022/11/14 15:16:49;;;;;;;14.80;7.73;;;7.80;99.90;;;;;;4898136;29;20322;-72
2022/11/14 15:19:19;;;;;;;15.77;7.37;;;7.80;99.90;;;;;;4897904;29;20670;-73
2022/11/14 15:22:01;;;;;;;14.57;7.80;;;7.80;99.90;;;;;;4897847;29;20300;-74
2022/11/14 15:24:30;;;;;;;16.03;7.23;;;7.80;99.90;;;;;;4898157;29;20214;-75
2022/11/14 15:26:57;;;;;;;16.00;7.90;;;7.80;99.90;;;;;;4897922;29;20377;-73
2022/11/14 15:29:26;;;;;;;14.13;7.30;;;7.90;99.90;;;;;;4898235;29;20202;-72
2022/11/14 15:31:55;;;;;;;14.53;7.47;;;8.00;99.90;;;;;;4897953;29;20246;-74
2022/11/14 15:34:29;;;;;;;15.37;7.10;;;8.00;99.90;;;;;;4898170;29;20236;-69
2022/11/14 15:37:08;;;;;;;12.27;6.13;;;7.90;99.90;;;;;;4913295;29;20316;-69
2022/11/14 15:39:37;;;;;;;12.57;6.57;;;7.90;99.90;;;;;;4915531;29;20292;-69
2022/11/14 15:42:14;;;;;;;14.73;7.13;;;8.00;99.90;;;;;;4912143;29;20241;-74
2022/11/14 15:44:42;;;;;;;13.37;6.23;;;7.90;99.90;;;;;;4914126;29;20214;-75
2022/11/14 15:47:12;;;;;;;13.60;6.70;;;7.90;99.90;;;;;;4914351;29;20304;-71
2022/11/14 15:49:39;;;;;;;13.40;5.83;;;8.00;99.90;;;;;;4916368;29;20229;-69
2022/11/14 15:52:18;;;;;;;12.03;6.50;;;7.90;99.90;;;;;;4915386;29;20284;-75
2022/11/14 15:54:47;;;;;;;12.33;5.97;;;7.90;99.90;;;;;;4915247;29;20223;-72
2022/11/14 15:57:16;;;;;;;9.33;5.40;;;7.80;99.90;;;;;;4915362;29;20723;-69
2022/11/14 15:59:43;;;;;;;12.43;6.50;;;7.70;99.90;;;;;;4914909;29;20261;-69
2022/11/14 16:02:16;;;;;;;10.20;5.77;;;7.80;99.90;;;;;;4906801;29;20290;-73
2022/11/14 16:04:43;;;;;;;10.83;5.57;;;7.90;99.90;;;;;;4907920;29;20304;-73
2022/11/14 16:07:12;;;;;;;12.50;5.67;;;7.90;99.90;;;;;;4905287;29;20224;-68
2022/11/14 16:09:39;;;;;;;9.83;5.17;;;7.90;99.90;;;;;;4916165;29;20300;-74
2022/11/14 16:12:08;;;;;;;13.23;6.10;;;7.90;99.90;;;;;;4915829;29;20214;-76
2022/11/14 16:14:35;;;;;;;9.27;5.33;;;7.90;99.90;;;;;;4915648;29;20244;-77
2022/11/14 16:17:02;;;;;;;10.80;5.67;;;7.90;99.90;;;;;;4915558;29;20380;-68
2022/11/14 16:19:29;;;;;;;10.90;5.47;;;7.80;99.90;;;;;;4915260;29;20237;-68
2022/11/14 16:22:01;;;;;;;9.97;5.83;;;7.80;99.90;;;;;;4915508;29;20210;-70
2022/11/14 16:24:30;;;;;;;10.30;5.13;;;7.80;99.90;;;;;;4915264;29;20573;-70
2022/11/14 16:26:57;;;;;;;10.20;5.37;;;7.80;99.90;;;;;;4915818;29;20233;-71
2022/11/14 16:29:26;;;;;;;9.33;5.63;;;7.90;99.90;;;;;;4916023;29;20231;-71
2022/11/14 16:31:54;;;;;;;8.97;4.97;;;8.00;99.90;;;;;;4915721;29;20316;-70
2022/11/14 16:34:26;;;;;;;9.77;5.33;;;8.00;99.90;;;;;;4910814;29;20265;-67
2022/11/14 16:36:59;;;;;;;10.17;5.83;;;8.00;99.90;;;;;;4913480;29;20221;-68
2022/11/14 16:39:26;;;;;;;9.47;5.20;;;8.00;99.90;;;;;;4914597;29;20304;-71
2022/11/14 16:41:53;;;;;;;9.87;5.40;;;8.00;99.90;;;;;;4913919;29;20626;-70
2022/11/14 16:44:20;;;;;;;9.13;5.13;;;8.00;99.90;;;;;;4914048;29;20245;-70
2022/11/14 16:46:48;;;;;;;10.37;5.47;;;8.00;99.90;;;;;;4914986;29;20316;-72
2022/11/14 16:49:18;;;;;;;11.37;5.73;;;8.10;99.90;;;;;;4913650;29;20771;-69
2022/11/14 16:51:48;;;;;;;9.20;5.67;;;8.10;99.90;;;;;;4917119;29;20218;-70
2022/11/14 16:54:15;;;;;;;9.73;5.00;;;8.10;99.90;;;;;;4917131;29;20237;-72
2022/11/14 16:56:42;;;;;;;8.00;4.50;;;8.00;99.90;;;;;;4917375;29;20316;-72
2022/11/14 16:59:09;;;;;;;12.43;6.53;;;8.10;99.90;;;;;;4917285;29;20226;-73
2022/11/14 17:01:36;;;;;;;9.07;5.37;;;8.10;99.90;;;;;;4903869;29;20336;-71
2022/11/14 17:04:05;;;;;;;8.77;5.07;;;8.00;99.90;;;;;;4906994;29;20240;-71
2022/11/14 17:06:32;;;;;;;10.67;5.20;;;8.00;99.90;;;;;;4903923;29;20333;-70
2022/11/14 17:09:00;;;;;;;10.63;5.97;;;8.00;99.90;;;;;;4917058;29;20296;-73
2022/11/14 17:11:27;;;;;;;13.07;5.27;;;8.10;99.90;;;;;;4905675;29;20214;-73
2022/11/14 17:13:55;;;;;;;12.43;6.07;;;8.00;99.90;;;;;;4900523;29;20301;-73
2022/11/14 17:16:22;;;;;;;11.97;5.17;;;7.80;99.90;;;;;;4918348;29;20715;-73
2022/11/14 17:18:51;;;;;;;13.20;6.10;;;7.80;99.90;;;;;;4918359;29;20219;-73
2022/11/14 17:21:20;;;;;;;10.43;5.30;;;7.80;99.90;;;;;;4903023;29;20215;-73
2022/11/14 17:23:52;;;;;;;11.90;5.40;;;7.90;99.90;;;;;;4904109;29;20650;-72
2022/11/14 17:26:19;;;;;;;11.53;6.17;;;7.80;99.90;;;;;;4910519;29;20225;-73
2022/11/14 17:28:46;;;;;;;13.20;5.60;;;7.90;99.90;;;;;;4913615;29;20224;-71
2022/11/14 17:31:13;;;;;;;11.30;5.73;;;7.80;99.90;;;;;;4905172;29;20222;-73
2022/11/14 17:33:39;;;;;;;10.93;5.83;;;7.80;99.90;;;;;;4916534;29;20237;-73
2022/11/14 17:36:08;;;;;;;11.60;5.77;;;7.80;99.90;;;;;;4910187;29;20230;-74
2022/11/14 17:38:37;;;;;;;10.67;5.63;;;7.90;99.90;;;;;;4913499;29;20213;-70
2022/11/14 17:41:05;;;;;;;14.23;5.87;;;7.90;99.90;;;;;;4912873;29;20228;-74
2022/11/14 17:43:32;;;;;;;16.30;6.07;;;7.90;99.90;;;;;;4911587;29;20214;-73
2022/11/14 17:45:59;;;;;;;13.90;6.43;;;7.90;99.90;;;;;;4908206;29;20229;-74
2022/11/14 17:48:26;;;;;;;13.40;5.87;;;8.00;99.90;;;;;;4910945;29;20695;-72
2022/11/14 17:50:53;;;;;;;13.37;6.80;;;7.90;99.90;;;;;;4905369;29;20224;-71
2022/11/14 17:53:20;;;;;;;13.63;6.57;;;8.00;99.90;;;;;;4902274;29;20261;-68
2022/11/14 17:55:54;;;;;;;12.07;6.20;;;8.10;99.90;;;;;;4902698;29;20209;-73
2022/11/14 17:58:21;;;;;;;11.37;5.63;;;8.10;99.90;;;;;;4905719;29;20218;-73
2022/11/14 18:00:49;;;;;;;10.63;5.23;;;8.20;99.90;;;;;;4912462;29;20202;-73
2022/11/14 18:03:15;;;;;;;11.23;5.70;;;8.20;99.90;;;;;;4902751;29;20218;-71
2022/11/14 18:05:42;;;;;;;13.93;6.53;;;8.10;99.90;;;;;;4910122;29;20206;-70
2022/11/14 18:08:09;;;;;;;12.33;5.90;;;8.10;99.90;;;;;;4911727;29;20565;-69
2022/11/14 18:10:36;;;;;;;14.80;6.60;;;8.20;99.90;;;;;;4911226;29;20216;-71
2022/11/14 18:13:04;;;;;;;13.90;5.77;;;8.20;99.90;;;;;;4914423;29;20684;-71
2022/11/14 18:15:31;;;;;;;15.87;6.37;;;8.10;99.90;;;;;;4906332;29;20299;-73
2022/11/14 18:17:58;;;;;;;13.63;5.97;;;8.10;99.90;;;;;;4912990;29;20240;-73
2022/11/14 18:20:26;;;;;;;12.07;5.73;;;8.10;99.90;;;;;;4917412;29;20332;-71
2022/11/14 18:22:52;;;;;;;11.87;5.30;;;8.10;99.90;;;;;;4917305;29;20214;-75
2022/11/14 18:25:19;;;;;;;16.60;5.23;;;8.20;99.90;;;;;;4917258;29;20210;-73
2022/11/14 18:27:46;;;;;;;15.03;6.23;;;8.20;99.90;;;;;;4917233;29;20234;-75
2022/11/14 18:30:14;;;;;;;12.30;6.00;;;8.20;99.90;;;;;;4917952;29;20216;-74
2022/11/14 18:32:41;;;;;;;14.40;6.67;;;8.20;99.90;;;;;;4917777;29;20216;-74
2022/11/14 18:35:09;;;;;;;15.90;6.47;;;8.20;99.90;;;;;;4917665;29;20233;-75
2022/11/14 18:37:36;;;;;;;16.27;6.40;;;8.30;99.90;;;;;;4917547;29;20255;-74
2022/11/14 18:40:03;;;;;;;14.97;6.90;;;8.40;99.90;;;;;;4917958;29;20210;-75
2022/11/14 18:42:30;;;;;;;17.43;6.40;;;8.50;99.90;;;;;;4917762;29;20218;-74
2022/11/14 18:44:57;;;;;;;14.50;6.47;;;8.50;99.90;;;;;;4917573;29;20224;-74
2022/11/14 18:47:25;;;;;;;13.40;6.67;;;8.50;99.90;;;;;;4917558;29;20233;-70
2022/11/14 18:49:52;;;;;;;12.73;6.30;;;8.60;99.90;;;;;;4917402;29;20703;-74
2022/11/14 18:52:18;;;;;;;14.20;6.73;;;8.60;99.90;;;;;;4917463;29;20573;-73
2022/11/14 18:54:45;;;;;;;14.27;6.70;;;8.60;99.90;;;;;;4917655;29;20244;-75
2022/11/14 18:57:12;;;;;;;16.43;7.53;;;8.70;99.90;;;;;;4917806;29;20244;-72
2022/11/14 18:59:39;;;;;;;14.07;6.97;;;8.60;99.90;;;;;;4917438;29;20206;-76
2022/11/14 19:02:06;;;;;;;15.17;7.43;;;8.70;99.90;;;;;;4917234;29;20214;-74
2022/11/14 19:04:34;;;;;;;19.73;8.17;;;8.80;99.90;;;;;;4917145;29;20216;-76
2022/11/14 19:07:01;;;;;;;20.87;9.23;;;8.80;99.90;;;;;;4916854;29;20235;-75
2022/11/14 19:09:28;;;;;;;20.70;7.50;;;8.90;99.90;;;;;;4917152;29;20531;-75
2022/11/14 19:14:39;;;;;;;16.63;7.47;;;8.80;99.90;;;;;;4916479;29;20731;-75
2022/11/14 19:17:06;;;;;;;27.90;12.17;;;8.80;99.90;;;;;;4917187;29;20743;-76
2022/11/14 19:19:35;;;;;;;15.90;8.37;;;8.90;99.90;;;;;;4917281;29;20305;-75
2022/11/14 19:22:02;;;;;;;16.70;7.27;;;8.90;99.90;;;;;;4916967;29;20209;-76
2022/11/14 19:24:29;;;;;;;16.17;7.70;;;9.00;99.90;;;;;;4917017;29;20236;-76
2022/11/14 19:26:56;;;;;;;13.90;7.47;;;9.00;99.90;;;;;;4916961;29;20236;-76
2022/11/14 19:29:24;;;;;;;17.10;7.20;;;9.10;99.90;;;;;;4916940;29;20276;-76
2022/11/14 19:31:52;;;;;;;17.67;7.57;;;9.10;99.90;;;;;;4917046;29;20216;-75
2022/11/14 19:34:18;;;;;;;14.50;6.90;;;9.00;99.90;;;;;;4917067;29;20252;-74
2022/11/14 19:36:46;;;;;;;13.13;6.40;;;8.90;99.90;;;;;;4916391;29;20238;-76
2022/11/14 19:39:13;;;;;;;14.33;6.53;;;8.90;99.90;;;;;;4916910;29;20206;-76
2022/11/14 19:41:40;;;;;;;15.03;6.97;;;9.00;99.90;;;;;;4917033;29;20217;-76
2022/11/14 19:44:07;;;;;;;14.90;6.47;;;9.10;99.90;;;;;;4916957;29;20629;-75
2022/11/14 19:46:35;;;;;;;16.90;7.43;;;9.20;99.90;;;;;;4916602;29;20263;-76
2022/11/14 19:49:02;;;;;;;14.33;7.10;;;9.30;99.90;;;;;;4916873;29;20241;-75
2022/11/14 19:51:29;;;;;;;16.43;7.13;;;9.30;99.90;;;;;;4916894;29;20217;-75
2022/11/14 19:54:00;;;;;;;14.20;7.23;;;9.40;99.90;;;;;;4916835;29;20604;-76
2022/11/14 19:56:27;;;;;;;13.53;6.70;;;9.40;99.90;;;;;;4916613;29;20229;-75
2022/11/14 19:58:55;;;;;;;14.47;6.57;;;9.40;99.90;;;;;;4916764;29;20680;-76
2022/11/14 20:01:24;;;;;;;16.00;6.87;;;9.50;99.90;;;;;;4916706;29;20216;-73
2022/11/14 20:03:51;;;;;;;15.60;6.77;;;9.40;99.90;;;;;;4916390;29;20673;-76
2022/11/14 20:06:22;;;;;;;21.50;7.57;;;9.50;99.90;;;;;;4916313;29;20729;-73
2022/11/14 20:08:48;;;;;;;13.40;6.50;;;9.70;99.90;;;;;;4916581;29;20567;-74
2022/11/14 20:11:17;;;;;;;14.60;6.83;;;9.70;99.90;;;;;;4916692;29;20209;-76
2022/11/14 20:13:44;;;;;;;14.73;6.70;;;9.70;99.90;;;;;;4916952;29;20324;-76
2022/11/14 20:16:12;;;;;;;17.47;7.70;;;9.80;99.90;;;;;;4916335;29;20320;-75
2022/11/14 20:18:40;;;;;;;23.00;9.43;;;9.90;99.90;;;;;;4916812;29;20249;-77
2022/11/14 20:21:11;;;;;;;17.50;7.50;;;9.90;99.90;;;;;;4916279;29;20249;-76
2022/11/14 20:23:38;;;;;;;21.80;7.63;;;10.00;99.90;;;;;;4916757;29;20220;-76
2022/11/14 20:26:05;;;;;;;13.37;6.70;;;10.00;99.90;;;;;;4918273;29;20236;-75
2022/11/14 20:28:33;;;;;;;16.37;7.40;;;10.10;99.90;;;;;;4920073;29;20622;-77
2022/11/14 20:31:01;;;;;;;17.17;7.63;;;10.10;99.90;;;;;;4920446;29;20637;-73
2022/11/14 20:33:28;;;;;;;19.27;8.63;;;10.20;99.90;;;;;;4920166;29;20277;-75
2022/11/14 20:35:55;;;;;;;15.63;7.60;;;10.10;99.90;;;;;;4919994;29;20305;-76
2022/11/14 20:38:22;;;;;;;15.40;7.43;;;10.10;99.90;;;;;;4920120;29;20212;-75
2022/11/14 20:40:54;;;;;;;15.83;7.23;;;10.20;99.90;;;;;;4919932;29;20559;-74
2022/11/14 20:43:21;;;;;;;16.33;6.80;;;10.20;99.90;;;;;;4919981;29;20695;-76
2022/11/14 20:45:57;;;;;;;15.37;7.53;;;10.20;99.90;;;;;;4919831;29;20213;-76
2022/11/14 20:48:24;;;;;;;16.53;7.27;;;10.10;99.90;;;;;;4920045;29;20209;-74
2022/11/14 20:50:50;;;;;;;18.90;7.63;;;10.20;99.90;;;;;;4919992;29;20221;-76
2022/11/14 20:53:18;;;;;;;16.87;7.30;;;10.20;99.90;;;;;;4919792;29;20643;-76
2022/11/14 20:55:44;;;;;;;15.07;7.13;;;10.30;99.90;;;;;;4919787;29;20327;-75
2022/11/14 20:58:11;;;;;;;14.40;7.40;;;10.50;99.90;;;;;;4919578;29;20210;-75
2022/11/14 21:00:38;;;;;;;15.23;7.20;;;10.40;99.90;;;;;;4919695;29;20209;-76
2022/11/14 21:03:07;;;;;;;21.20;8.07;;;10.50;99.90;;;;;;4919548;29;20206;-76
2022/11/14 21:05:38;;;;;;;21.33;9.00;;;10.50;99.90;;;;;;4919186;29;20308;-75
2022/11/14 21:08:05;;;;;;;14.67;7.23;;;10.60;99.90;;;;;;4919396;29;20301;-74
2022/11/14 21:10:45;;;;;;;18.50;7.63;;;10.60;99.90;;;;;;4919557;29;20296;-75
2022/11/14 21:15:57;;;;;;;15.53;6.50;;;10.60;99.90;;;;;;4919360;29;20365;-74
2022/11/14 21:18:25;;;;;;;18.97;8.20;;;10.60;99.90;;;;;;4919057;29;20217;-76
2022/11/14 21:20:59;;;;;;;14.13;7.43;;;10.60;99.90;;;;;;4919449;29;20216;-76
2022/11/14 21:23:25;;;;;;;15.13;7.03;;;10.70;99.90;;;;;;4919427;29;20210;-73
2022/11/14 21:25:52;;;;;;;13.73;7.20;;;10.60;99.90;;;;;;4919041;29;20213;-74
2022/11/14 21:28:19;;;;;;;12.37;6.60;;;10.70;99.90;;;;;;4919066;29;20221;-76
2022/11/14 21:30:46;;;;;;;19.50;7.10;;;10.90;99.90;;;;;;4919091;29;20221;-72
2022/11/14 21:33:12;;;;;;;14.40;6.53;;;10.90;99.90;;;;;;4919203;29;20214;-75
2022/11/14 21:35:41;;;;;;;18.17;6.87;;;11.00;99.90;;;;;;4918684;29;20738;-75
2022/11/14 21:38:07;;;;;;;13.10;6.30;;;11.10;99.90;;;;;;4917994;29;20215;-74
2022/11/14 21:40:34;;;;;;;11.27;6.63;;;11.00;99.90;;;;;;4918942;29;20206;-72
2022/11/14 21:43:01;;;;;;;15.13;6.77;;;10.90;99.90;;;;;;4918906;29;20214;-76
2022/11/14 21:45:28;;;;;;;16.53;7.03;;;10.90;99.90;;;;;;4918931;29;20217;-74
2022/11/14 21:47:54;;;;;;;12.80;6.53;;;10.80;99.90;;;;;;4918539;29;20592;-74
2022/11/14 21:50:21;;;;;;;15.60;6.63;;;10.80;99.90;;;;;;4918712;29;20227;-75
2022/11/14 21:52:49;;;;;;;18.20;7.43;;;10.80;99.90;;;;;;4918939;29;20224;-73
2022/11/14 21:55:16;;;;;;;17.87;6.70;;;10.90;99.90;;;;;;4918914;29;20253;-75
2022/11/14 21:57:43;;;;;;;13.70;6.03;;;10.90;99.90;;;;;;4918540;29;20230;-75
2022/11/14 22:00:11;;;;;;;15.87;6.37;;;10.90;99.90;;;;;;4918657;29;20214;-73
